createdAt,value
2023-04-15T00:01:00.666Z,10.70
2023-04-15T00:03:28.592Z,11.30
2023-04-15T00:05:56.335Z,8.00
2023-04-15T00:08:23.756Z,10.13
2023-04-15T00:10:50.989Z,8.80
2023-04-15T00:13:17.939Z,15.23
2023-04-15T00:15:44.945Z,33.17
2023-04-15T00:18:11.939Z,27.70
2023-04-15T00:20:38.986Z,36.67
2023-04-15T00:23:06.034Z,48.53
2023-04-15T00:25:33.157Z,36.43
2023-04-15T00:28:00.159Z,40.67
2023-04-15T00:30:27.242Z,26.83
2023-04-15T00:32:54.195Z,17.07
2023-04-15T00:35:24.047Z,11.80
2023-04-15T00:37:51.596Z,10.93
2023-04-15T00:40:20.957Z,9.27
2023-04-15T00:42:48.070Z,10.50
2023-04-15T00:45:15.683Z,11.57
2023-04-15T00:47:44.301Z,10.27
2023-04-15T00:50:12.703Z,9.30
2023-04-15T00:52:40.747Z,9.23
2023-04-15T00:55:08.884Z,8.00
2023-04-15T00:57:36.541Z,8.97
2023-04-15T01:00:05.710Z,7.23
2023-04-15T01:02:33.597Z,10.97
2023-04-15T01:05:04.170Z,11.47
2023-04-15T01:07:32.063Z,9.27
2023-04-15T01:09:59.270Z,10.00
2023-04-15T01:12:27.940Z,9.00
2023-04-15T01:14:56.258Z,8.03
2023-04-15T01:17:24.827Z,9.00
2023-04-15T01:19:52.830Z,8.07
2023-04-15T01:22:19.892Z,8.33
2023-04-15T01:25:00.045Z,8.70
2023-04-15T01:27:27.077Z,8.30
2023-04-15T01:29:54.118Z,10.03
2023-04-15T01:32:21.164Z,11.80
2023-04-15T01:34:48.175Z,10.23
2023-04-15T01:37:15.428Z,10.13
2023-04-15T01:39:44.700Z,8.43
2023-04-15T01:42:11.668Z,10.30
2023-04-15T01:44:38.590Z,9.77
2023-04-15T01:47:05.664Z,10.27
2023-04-15T01:49:32.734Z,13.03
2023-04-15T01:52:00.813Z,15.30
2023-04-15T01:54:27.956Z,10.20
2023-04-15T01:56:54.818Z,12.30
2023-04-15T01:59:21.823Z,10.23
2023-04-15T02:01:48.910Z,11.43
2023-04-15T02:04:18.683Z,10.03
2023-04-15T02:06:46.289Z,9.00
2023-04-15T02:09:14.734Z,10.60
2023-04-15T02:11:43.833Z,10.23
2023-04-15T02:14:10.854Z,11.93
2023-04-15T02:16:37.853Z,16.67
2023-04-15T02:19:04.865Z,12.90
2023-04-15T02:21:31.926Z,36.37
2023-04-15T02:23:58.877Z,21.93
2023-04-15T02:26:25.883Z,15.87
2023-04-15T02:28:55.443Z,10.23
2023-04-15T02:31:22.563Z,13.27
2023-04-15T02:33:49.590Z,11.67
2023-04-15T02:36:16.573Z,16.30
2023-04-15T02:38:44.126Z,11.73
2023-04-15T02:41:13.773Z,14.87
2023-04-15T02:43:40.950Z,17.83
2023-04-15T02:46:12.855Z,16.33
2023-04-15T02:48:39.925Z,16.17
2023-04-15T02:51:19.878Z,22.50
2023-04-15T02:53:48.497Z,16.37
2023-04-15T02:56:17.135Z,14.87
2023-04-15T02:58:45.557Z,17.07
2023-04-15T03:01:12.815Z,21.77
2023-04-15T03:03:41.066Z,13.73
2023-04-15T03:06:09.111Z,21.03
2023-04-15T03:08:36.497Z,27.53
2023-04-15T03:11:04.585Z,21.47
2023-04-15T03:13:33.103Z,23.63
2023-04-15T03:16:05.767Z,26.53
2023-04-15T03:18:33.109Z,17.73
2023-04-15T03:21:02.956Z,15.40
2023-04-15T03:23:32.724Z,15.03
2023-04-15T03:26:02.935Z,22.90
2023-04-15T03:28:32.652Z,20.23
2023-04-15T03:31:00.656Z,21.37
2023-04-15T03:33:27.864Z,30.90
2023-04-15T03:35:54.805Z,21.37
2023-04-15T03:38:21.658Z,68.13
2023-04-15T03:40:48.631Z,37.03
2023-04-15T03:43:15.687Z,17.43
2023-04-15T03:45:42.683Z,14.40
2023-04-15T03:48:17.201Z,14.07
2023-04-15T03:50:45.256Z,14.17
2023-04-15T03:53:12.269Z,13.30
2023-04-15T03:55:39.292Z,14.13
2023-04-15T03:58:06.534Z,13.63
2023-04-15T04:00:33.563Z,13.50
2023-04-15T04:03:00.756Z,14.67
2023-04-15T04:05:27.841Z,17.43
2023-04-15T04:07:54.810Z,13.53
2023-04-15T04:10:21.717Z,15.37
2023-04-15T04:12:48.723Z,16.17
2023-04-15T04:15:15.973Z,12.33
2023-04-15T04:17:42.977Z,19.83
2023-04-15T04:20:10.126Z,16.87
2023-04-15T04:22:40.745Z,14.53
2023-04-15T04:25:10.334Z,15.70
2023-04-15T04:27:37.441Z,16.67
2023-04-15T04:30:05.708Z,13.27
2023-04-15T04:32:32.840Z,12.83
2023-04-15T04:34:59.930Z,12.90
2023-04-15T04:37:27.285Z,14.50
2023-04-15T04:39:54.215Z,13.60
2023-04-15T04:42:21.237Z,16.13
2023-04-15T04:44:48.176Z,13.50
2023-04-15T04:47:15.087Z,14.10
2023-04-15T04:49:42.192Z,14.83
2023-04-15T04:52:09.134Z,16.07
2023-04-15T04:54:36.287Z,15.37
2023-04-15T04:57:03.257Z,14.40
2023-04-15T04:59:30.144Z,15.00
2023-04-15T05:01:57.199Z,13.70
2023-04-15T05:04:24.247Z,14.27
2023-04-15T05:06:51.766Z,12.27
2023-04-15T05:09:19.168Z,16.93
2023-04-15T05:11:46.248Z,13.30
2023-04-15T05:14:13.239Z,12.20
2023-04-15T05:16:40.232Z,14.63
2023-04-15T05:19:07.862Z,12.70
2023-04-15T05:21:34.762Z,22.20
2023-04-15T05:24:01.834Z,17.30
2023-04-15T05:26:29.023Z,20.47
2023-04-15T05:28:55.933Z,15.03
2023-04-15T05:31:22.904Z,13.43
2023-04-15T05:33:49.811Z,12.63
2023-04-15T05:36:16.701Z,18.30
2023-04-15T05:38:43.577Z,16.40
2023-04-15T05:41:10.521Z,16.93
2023-04-15T05:43:37.433Z,16.80
2023-04-15T05:46:04.519Z,14.50
2023-04-15T05:48:31.394Z,12.53
2023-04-15T05:50:58.675Z,13.07
2023-04-15T05:53:25.714Z,15.37
2023-04-15T05:55:52.604Z,14.87
2023-04-15T05:58:19.516Z,15.43
2023-04-15T06:00:46.498Z,20.13
2023-04-15T06:03:13.775Z,19.13
2023-04-15T06:05:40.799Z,18.17
2023-04-15T06:08:08.326Z,21.30
2023-04-15T06:10:36.762Z,18.67
2023-04-15T06:13:04.378Z,13.30
2023-04-15T06:15:31.749Z,17.70
2023-04-15T06:17:58.907Z,18.20
2023-04-15T06:20:26.235Z,15.73
2023-04-15T06:22:53.580Z,14.70
2023-04-15T06:25:20.544Z,15.13
2023-04-15T06:27:48.344Z,13.80
2023-04-15T06:30:15.270Z,14.30
2023-04-15T06:32:42.268Z,14.13
2023-04-15T06:35:09.600Z,11.93
2023-04-15T06:37:36.820Z,14.37
2023-04-15T06:40:05.193Z,14.47
2023-04-15T06:42:32.362Z,12.83
2023-04-15T06:44:59.216Z,14.43
2023-04-15T06:47:26.284Z,11.60
2023-04-15T06:49:53.213Z,12.20
2023-04-15T06:52:20.206Z,11.67
2023-04-15T06:54:47.162Z,12.30
2023-04-15T06:57:14.119Z,12.70
2023-04-15T06:59:41.203Z,10.60
2023-04-15T07:02:12.404Z,11.30
2023-04-15T07:04:40.281Z,11.50
2023-04-15T07:07:08.310Z,14.60
2023-04-15T07:09:35.366Z,16.47
2023-04-15T07:12:02.366Z,11.63
2023-04-15T07:14:29.546Z,11.33
2023-04-15T07:16:56.599Z,14.00
2023-04-15T07:19:23.648Z,12.23
2023-04-15T07:21:50.647Z,11.47
2023-04-15T07:24:18.960Z,12.17
2023-04-15T07:26:46.276Z,11.07
2023-04-15T07:29:13.331Z,12.43
2023-04-15T07:31:42.167Z,11.27
2023-04-15T07:34:09.141Z,14.43
2023-04-15T07:36:36.851Z,11.48
2023-04-15T07:39:04.370Z,14.20
2023-04-15T07:41:31.706Z,11.25
2023-04-15T07:43:59.016Z,12.02
2023-04-15T07:46:27.509Z,11.73
2023-04-15T07:48:54.620Z,11.45
2023-04-15T07:51:21.631Z,10.60
2023-04-15T07:53:50.471Z,13.23
2023-04-15T07:56:17.439Z,12.80
2023-04-15T07:58:44.395Z,12.05
2023-04-15T08:01:11.730Z,15.30
2023-04-15T08:03:39.525Z,12.57
2023-04-15T08:06:06.726Z,11.87
2023-04-15T08:08:33.684Z,10.45
2023-04-15T08:11:00.678Z,11.10
2023-04-15T08:13:27.965Z,10.70
2023-04-15T08:16:20.917Z,11.93
2023-04-15T08:18:49.040Z,14.87
2023-04-15T08:21:16.955Z,11.67
2023-04-15T08:23:45.010Z,12.77
2023-04-15T08:26:12.358Z,11.43
2023-04-15T08:28:40.790Z,11.33
2023-04-15T08:31:08.713Z,13.43
2023-04-15T08:33:35.937Z,11.93
2023-04-15T08:36:03.532Z,14.13
2023-04-15T08:38:30.717Z,12.83
2023-04-15T08:41:00.792Z,13.03
2023-04-15T08:43:35.252Z,13.10
2023-04-15T08:46:04.427Z,15.33
2023-04-15T08:48:35.095Z,13.13
2023-04-15T08:51:02.501Z,12.57
2023-04-15T08:53:30.760Z,13.20
2023-04-15T08:56:00.202Z,13.00
2023-04-15T08:58:27.383Z,12.60
2023-04-15T09:00:55.104Z,12.40
2023-04-15T09:03:23.744Z,13.57
2023-04-15T09:05:52.748Z,12.23
2023-04-15T09:08:20.384Z,12.37
2023-04-15T09:10:47.499Z,12.27
2023-04-15T09:13:14.507Z,11.40
2023-04-15T09:15:41.730Z,13.00
2023-04-15T09:18:11.540Z,12.60
2023-04-15T09:20:42.677Z,12.03
2023-04-15T09:23:17.566Z,11.57
2023-04-15T09:25:46.768Z,12.23
2023-04-15T09:28:13.658Z,10.40
2023-04-15T09:30:46.611Z,8.67
2023-04-15T09:33:15.214Z,11.27
2023-04-15T09:35:42.344Z,10.07
2023-04-15T09:38:10.782Z,10.33
2023-04-15T09:40:42.072Z,10.13
2023-04-15T09:43:13.009Z,10.37
2023-04-15T09:45:51.461Z,11.13
2023-04-15T09:48:25.404Z,9.53
2023-04-15T09:50:54.061Z,11.53
2023-04-15T09:53:22.524Z,11.57
2023-04-15T09:55:54.815Z,12.37
2023-04-15T09:58:26.628Z,9.87
2023-04-15T10:00:56.523Z,11.83
2023-04-15T10:03:32.076Z,13.03
2023-04-15T10:06:01.064Z,12.33
2023-04-15T10:08:31.546Z,12.17
2023-04-15T10:10:59.008Z,11.13
2023-04-15T10:13:28.944Z,11.53
2023-04-15T10:16:14.442Z,11.67
2023-04-15T10:18:47.258Z,11.70
2023-04-15T10:21:18.402Z,11.50
2023-04-15T10:23:48.787Z,11.13
2023-04-15T10:26:17.403Z,12.10
2023-04-15T10:28:45.162Z,12.07
2023-04-15T10:31:16.296Z,12.60
2023-04-15T10:33:44.512Z,12.30
2023-04-15T10:36:12.704Z,14.00
2023-04-15T10:38:45.654Z,12.97
2023-04-15T10:41:21.197Z,10.43
2023-04-15T10:43:52.838Z,11.77
2023-04-15T10:46:38.141Z,13.20
2023-04-15T10:49:13.996Z,11.33
2023-04-15T10:51:44.465Z,9.53
2023-04-15T10:54:32.507Z,9.93
2023-04-15T10:57:02.964Z,8.70
2023-04-15T10:59:59.988Z,8.33
2023-04-15T11:02:57.428Z,10.53
2023-04-15T11:05:51.826Z,9.50
2023-04-15T11:08:19.280Z,9.90
2023-04-15T11:10:46.300Z,10.47
2023-04-15T11:13:21.895Z,9.53
2023-04-15T11:15:49.781Z,12.00
2023-04-15T11:18:17.884Z,15.70
2023-04-15T11:20:48.923Z,15.00
2023-04-15T11:23:17.781Z,10.63
2023-04-15T11:25:45.178Z,11.70
2023-04-15T11:28:13.216Z,11.70
2023-04-15T11:30:41.017Z,12.43
2023-04-15T11:33:09.779Z,11.93
2023-04-15T11:35:37.131Z,11.27
2023-04-15T11:38:05.525Z,10.13
2023-04-15T11:40:35.881Z,9.53
2023-04-15T11:43:13.944Z,9.30
2023-04-15T11:46:01.535Z,9.30
2023-04-15T11:48:33.396Z,9.67
2023-04-15T11:51:02.704Z,9.07
2023-04-15T11:53:41.002Z,11.27
2023-04-15T11:56:10.284Z,10.93
2023-04-15T11:58:38.434Z,9.13
2023-04-15T12:01:06.824Z,10.43
2023-04-15T12:03:36.625Z,8.93
2023-04-15T12:06:23.556Z,9.47
2023-04-15T12:08:56.325Z,8.60
2023-04-15T12:11:35.447Z,10.20
2023-04-15T12:14:16.020Z,9.20
2023-04-15T12:16:49.953Z,8.87
2023-04-15T12:19:24.288Z,9.87
2023-04-15T12:21:52.235Z,7.73
2023-04-15T12:24:24.789Z,9.83
2023-04-15T12:26:54.095Z,8.90
2023-04-15T12:29:25.175Z,7.23
2023-04-15T12:31:57.741Z,7.93
2023-04-15T12:34:36.410Z,9.00
2023-04-15T12:37:06.329Z,17.97
2023-04-15T12:39:37.010Z,22.17
2023-04-15T12:42:06.224Z,9.00
2023-04-15T12:44:33.702Z,7.57
2023-04-15T12:47:01.336Z,6.00
2023-04-15T12:49:28.647Z,7.87
2023-04-15T12:52:03.043Z,6.23
2023-04-15T12:54:31.445Z,7.57
2023-04-15T12:56:59.332Z,6.17
2023-04-15T12:59:26.418Z,6.27
2023-04-15T13:01:54.140Z,5.70
2023-04-15T13:04:22.198Z,5.17
2023-04-15T13:06:49.537Z,5.80
2023-04-15T13:09:16.531Z,4.97
2023-04-15T13:11:43.660Z,7.93
2023-04-15T13:14:13.797Z,5.97
2023-04-15T13:16:41.354Z,5.37
2023-04-15T13:19:08.512Z,5.03
2023-04-15T13:21:36.413Z,5.30
2023-04-15T13:24:04.763Z,5.07
2023-04-15T13:26:32.234Z,4.80
2023-04-15T13:28:59.817Z,5.77
2023-04-15T13:31:27.316Z,5.00
2023-04-15T13:33:54.413Z,5.37
2023-04-15T13:36:21.592Z,5.17
2023-04-15T13:38:50.950Z,6.80
2023-04-15T13:41:18.790Z,6.23
2023-04-15T13:43:46.316Z,5.47
2023-04-15T13:46:13.265Z,4.80
2023-04-15T13:48:40.236Z,5.47
2023-04-15T13:51:07.139Z,4.60
2023-04-15T13:53:38.785Z,5.33
2023-04-15T13:56:10.115Z,9.40
2023-04-15T13:58:38.133Z,5.93
2023-04-15T14:01:06.948Z,6.80
2023-04-15T14:03:38.372Z,7.67
2023-04-15T14:06:06.172Z,5.20
2023-04-15T14:08:33.796Z,5.90
2023-04-15T14:11:01.145Z,10.17
2023-04-15T14:13:28.268Z,10.13
2023-04-15T14:15:55.428Z,8.37
2023-04-15T14:18:22.402Z,5.53
2023-04-15T14:20:49.486Z,5.13
2023-04-15T14:23:16.671Z,6.13
2023-04-15T14:25:45.013Z,7.10
2023-04-15T14:28:13.048Z,7.83
2023-04-15T14:30:39.999Z,5.97
2023-04-15T14:33:06.953Z,6.27
2023-04-15T14:35:33.913Z,7.10
2023-04-15T14:38:00.879Z,6.30
2023-04-15T14:40:27.897Z,7.33
2023-04-15T14:42:54.862Z,6.07
2023-04-15T14:45:21.823Z,7.20
2023-04-15T14:47:48.862Z,6.73
2023-04-15T14:50:16.076Z,7.30
2023-04-15T14:52:43.092Z,8.30
2023-04-15T14:55:12.021Z,9.80
2023-04-15T14:57:40.091Z,8.07
2023-04-15T15:00:07.994Z,6.77
2023-04-15T15:02:39.794Z,7.57
2023-04-15T15:05:08.585Z,8.83
2023-04-15T15:07:37.194Z,8.37
2023-04-15T15:10:05.073Z,12.27
2023-04-15T15:12:33.495Z,9.53
2023-04-15T15:15:02.926Z,8.13
2023-04-15T15:17:31.979Z,8.30
2023-04-15T15:19:58.967Z,7.93
2023-04-15T15:22:26.241Z,8.80
2023-04-15T15:24:53.605Z,8.03
2023-04-15T15:27:20.977Z,7.93
2023-04-15T15:29:48.971Z,8.87
2023-04-15T15:32:16.084Z,7.77
2023-04-15T15:34:43.010Z,7.70
2023-04-15T15:37:09.968Z,8.83
2023-04-15T15:39:36.957Z,6.20
2023-04-15T15:42:04.154Z,6.97
2023-04-15T15:44:32.469Z,7.90
2023-04-15T15:47:00.772Z,6.40
2023-04-15T15:49:28.445Z,6.63
2023-04-15T15:51:56.374Z,7.60
2023-04-15T15:54:24.266Z,6.63
2023-04-15T15:56:51.397Z,7.50
2023-04-15T15:59:18.395Z,6.90
2023-04-15T16:01:45.572Z,5.60
2023-04-15T16:04:12.931Z,7.17
2023-04-15T16:06:40.746Z,8.70
2023-04-15T16:09:07.715Z,7.50
2023-04-15T16:11:34.832Z,7.77
2023-04-15T16:14:01.918Z,8.30
2023-04-15T16:16:30.010Z,8.43
2023-04-15T16:19:00.242Z,8.47
2023-04-15T16:21:27.433Z,6.97
2023-04-15T16:23:54.574Z,7.10
2023-04-15T16:26:21.843Z,8.37
2023-04-15T16:28:48.819Z,9.30
2023-04-15T16:31:15.813Z,7.07
2023-04-15T16:33:42.713Z,7.67
2023-04-15T16:36:09.634Z,7.30
2023-04-15T16:38:36.601Z,7.23
2023-04-15T16:41:03.625Z,8.80
2023-04-15T16:43:30.720Z,12.80
2023-04-15T16:45:57.684Z,11.60
2023-04-15T16:48:24.747Z,8.63
2023-04-15T16:50:51.692Z,11.03
2023-04-15T16:53:18.880Z,11.83
2023-04-15T16:55:46.030Z,10.17
2023-04-15T16:58:12.938Z,11.90
2023-04-15T17:00:39.865Z,9.90
2023-04-15T17:03:07.006Z,9.10
2023-04-15T17:05:34.079Z,12.63
2023-04-15T17:08:01.062Z,10.70
2023-04-15T17:10:28.278Z,10.80
2023-04-15T17:12:59.038Z,10.47
2023-04-15T17:15:27.648Z,11.93
2023-04-15T17:17:54.833Z,11.20
2023-04-15T17:20:21.896Z,13.73
2023-04-15T17:22:49.199Z,14.17
2023-04-15T17:25:16.339Z,13.37
2023-04-15T17:27:43.753Z,12.67
2023-04-15T17:30:11.112Z,13.30
2023-04-15T17:32:39.405Z,15.70
2023-04-15T17:35:07.159Z,15.53
2023-04-15T17:37:34.511Z,17.23
2023-04-15T17:40:01.750Z,15.83
2023-04-15T17:42:28.709Z,19.03
2023-04-15T17:44:55.616Z,14.30
2023-04-15T17:47:22.644Z,21.90
2023-04-15T17:49:49.597Z,13.90
2023-04-15T17:52:16.858Z,16.43
2023-04-15T17:54:43.842Z,18.07
2023-04-15T17:57:10.830Z,17.63
2023-04-15T17:59:37.904Z,17.53
2023-04-15T18:02:04.908Z,20.23
2023-04-15T18:04:31.987Z,19.23
2023-04-15T18:06:59.212Z,25.00
2023-04-15T18:09:27.032Z,30.80
2023-04-15T18:11:53.985Z,16.93
2023-04-15T18:14:33.419Z,20.13
2023-04-15T18:17:01.536Z,21.93
2023-04-15T18:19:29.377Z,18.07
2023-04-15T18:21:56.335Z,19.03
2023-04-15T18:24:23.245Z,21.00
2023-04-15T18:26:50.382Z,21.37
2023-04-15T18:29:18.548Z,27.23
2023-04-15T18:31:45.594Z,23.47
2023-04-15T18:34:13.015Z,20.47
2023-04-15T18:36:40.084Z,24.03
2023-04-15T18:39:07.299Z,15.70
2023-04-15T18:41:34.510Z,30.93
2023-04-15T18:44:01.669Z,15.57
2023-04-15T18:46:28.986Z,16.80
2023-04-15T18:48:55.868Z,18.87
2023-04-15T18:51:22.820Z,18.00
2023-04-15T18:53:49.672Z,22.30
2023-04-15T18:56:17.597Z,18.63
2023-04-15T18:59:18.221Z,17.20
2023-04-15T19:01:32.077Z,17.87
2023-04-15T19:03:59.640Z,18.90
2023-04-15T19:06:27.290Z,21.03
2023-04-15T19:08:54.985Z,22.50
2023-04-15T19:11:22.008Z,18.83
2023-04-15T19:13:49.122Z,28.60
2023-04-15T19:16:16.100Z,21.53
2023-04-15T19:18:43.282Z,22.07
2023-04-15T19:21:14.968Z,20.73
2023-04-15T19:23:43.061Z,22.50
2023-04-15T19:26:11.828Z,21.90
2023-04-15T19:28:39.227Z,22.50
2023-04-15T19:31:06.730Z,25.07
2023-04-15T19:33:34.148Z,21.47
2023-04-15T19:36:02.729Z,24.13
2023-04-15T19:38:30.599Z,21.63
2023-04-15T19:40:58.493Z,26.03
2023-04-15T19:43:26.338Z,25.20
2023-04-15T19:45:54.763Z,28.70
2023-04-15T19:48:23.110Z,23.70
2023-04-15T19:50:50.318Z,28.33
2023-04-15T19:53:17.381Z,33.10
2023-04-15T19:55:44.462Z,35.90
2023-04-15T19:58:11.632Z,32.93
2023-04-15T20:00:38.752Z,29.80
2023-04-15T20:03:06.116Z,27.77
2023-04-15T20:05:33.236Z,28.30
2023-04-15T20:08:01.669Z,34.43
2023-04-15T20:10:29.730Z,30.17
2023-04-15T20:12:56.614Z,32.43
2023-04-15T20:15:24.890Z,30.10
2023-04-15T20:17:51.999Z,28.57
2023-04-15T20:20:19.249Z,30.00
2023-04-15T20:22:46.286Z,29.73
2023-04-15T20:25:13.548Z,31.90
2023-04-15T20:27:40.695Z,32.00
2023-04-15T20:30:08.281Z,34.80
2023-04-15T20:32:35.884Z,33.27
2023-04-15T20:35:04.537Z,35.50
2023-04-15T20:37:33.535Z,38.83
2023-04-15T20:40:01.880Z,32.43
2023-04-15T20:42:33.364Z,32.03
2023-04-15T20:45:00.496Z,35.97
2023-04-15T20:47:27.644Z,33.37
2023-04-15T20:49:54.784Z,37.20
2023-04-15T20:52:21.910Z,35.63
2023-04-15T20:54:48.841Z,34.43
2023-04-15T20:57:16.362Z,36.00
2023-04-15T20:59:43.562Z,37.33
2023-04-15T21:02:10.694Z,38.47
2023-04-15T21:04:38.414Z,37.50
2023-04-15T21:07:05.667Z,37.83
2023-04-15T21:09:32.693Z,37.20
2023-04-15T21:12:01.542Z,34.77
2023-04-15T21:14:29.839Z,35.37
2023-04-15T21:16:58.355Z,40.57
2023-04-15T21:19:25.458Z,37.97
2023-04-15T21:21:52.729Z,37.33
2023-04-15T21:24:19.775Z,41.00
2023-04-15T21:26:46.694Z,38.00
2023-04-15T21:29:13.785Z,37.73
2023-04-15T21:31:41.069Z,39.10
2023-04-15T21:34:08.372Z,43.30
2023-04-15T21:36:35.487Z,38.90
2023-04-15T21:39:02.646Z,38.80
2023-04-15T21:41:30.029Z,40.10
2023-04-15T21:43:57.214Z,38.43
2023-04-15T21:46:25.656Z,41.10
2023-04-15T21:49:00.037Z,38.13
2023-04-15T21:51:27.775Z,40.77
2023-04-15T21:53:54.808Z,38.17
2023-04-15T21:56:24.390Z,39.27
2023-04-15T21:58:54.271Z,41.63
2023-04-15T22:01:21.406Z,41.87
2023-04-15T22:03:48.737Z,38.57
2023-04-15T22:06:15.956Z,37.00
2023-04-15T22:08:55.417Z,37.50
2023-04-15T22:11:27.468Z,41.20
2023-04-15T22:13:55.685Z,43.13
2023-04-15T22:16:22.902Z,44.80
2023-04-15T22:18:49.937Z,42.17
2023-04-15T22:21:16.962Z,42.53
2023-04-15T22:23:47.729Z,43.67
2023-04-15T22:26:14.833Z,42.03
2023-04-15T22:28:41.944Z,46.43
2023-04-15T22:31:09.265Z,38.80
2023-04-15T22:33:36.531Z,46.07
2023-04-15T22:36:03.679Z,41.60
2023-04-15T22:38:30.866Z,37.27
2023-04-15T22:40:58.496Z,43.30
2023-04-15T22:43:27.573Z,48.33
2023-04-15T22:45:55.092Z,40.87
2023-04-15T22:48:22.800Z,39.90
2023-04-15T22:50:50.039Z,49.77
2023-04-15T22:53:17.823Z,46.30
2023-04-15T22:55:48.562Z,48.40
2023-04-15T22:58:17.079Z,44.17
2023-04-15T23:00:44.509Z,43.73
2023-04-15T23:03:11.614Z,42.17
2023-04-15T23:05:40.170Z,47.03
2023-04-15T23:08:07.709Z,46.03
2023-04-15T23:10:34.808Z,49.27
2023-04-15T23:13:01.945Z,44.67
2023-04-15T23:15:28.912Z,41.90
2023-04-15T23:17:55.915Z,47.67
2023-04-15T23:20:22.798Z,48.43
2023-04-15T23:22:49.854Z,44.73
2023-04-15T23:25:16.896Z,47.73
2023-04-15T23:27:43.749Z,49.83
2023-04-15T23:30:11.013Z,46.67
2023-04-15T23:32:37.977Z,53.10
2023-04-15T23:35:05.386Z,47.10
2023-04-15T23:37:32.410Z,50.50
2023-04-15T23:39:59.363Z,47.77
2023-04-15T23:42:26.345Z,47.27
2023-04-15T23:44:53.337Z,45.97
2023-04-15T23:47:21.024Z,48.33
2023-04-15T23:49:48.201Z,46.10
2023-04-15T23:52:15.456Z,51.30
2023-04-15T23:54:42.363Z,53.03
2023-04-15T23:57:09.426Z,50.33
2023-04-15T23:59:36.354Z,53.07
